Polk, PA (16342)

1:37 PM EDT on March 30, 2015 (GMT -0400)
Venango Regional | | Change Station
CLOSE
Current Station
Airport
Location: Franklin,
Elevation: 1539 ft
Nearby Weather Stations

Elev 1539 ft 41.38 °N, 79.86 °W | Updated 22 minutes ago

Overcast
Overcast
43 °F
Feels Like 35 °F
N
15
Wind Variable Wind from West
Gusts 23 mph

Today
High -- | Low -- °F
--% Chance of Precip.
Yesterday
High -- | Low -- °F
Precip. -- in
7:06 AM 7:42 PM
Waxing Gibbous, 81% visible
Pressure 29.91 in
Visibility 10.0 miles
Clouds Mostly Cloudy 5000 ft
Windchill 35 °F
Dew Point 28 °F
Humidity 57%
Rainfall 0.02 in
Snow Depth Not available.
UV 4 out of 12
Pollen 4.30 out of 12
Air Quality Not available.
Flu Activity Not available.
METAR KFKL 301715Z AUTO 28013G20KT 10SM BKN050 06/M02 A2991 RMK AO1

More Conditions Fewer Conditions

Pressure 29.91 in
Visibility 10.0 miles
Clouds Mostly Cloudy 5000 ft
Windchill 35 °F
Dew Point 28 °F
Humidity 57%
Rainfall 0.02 in
Snow Depth Not available.
UV 4 out of 12
Pollen 4.30 out of 12
Air Quality Not available.
Flu Activity Not available.
METAR KFKL 301715Z AUTO 28013G20KT 10SM BKN050 06/M02 A2991 RMK AO1

More Conditions Fewer Conditions

10-Day Weather Forecast

Almanac

Astronomy

Mar. 30, 2015 Rise Set
Actual Time
Civil Twilight
Nautical Twilight
Astronomical Twilight
Moon
Length of Visible Light
Length of Day
Tomorrow will be .
, % of the Moon is Illuminated

Today's Extremes

State Highs State Lows

Community

WunderPhotos

Upload Photos

1,809,545 photos uploaded!

WunderBlogs® & News

Nearby

Air Quality

  Air Quality AQ Index Pollutant
Not available.

Snow Depth

Station Depth Elevation

Earthquake Activity

City Distance Mag. Time & Date
Minimum magnitude displayed is 2.5.

Coastal Water Temperatures

Place Temperature

Stations

Nearby Weather Stations

Station Location Temp. Windchill Dew Point Humidity Wind Precip. Elev Updated Type